Time;durP1;ratioP1;P1;durP2;ratioP2;P2;SDS_P1;SDS_P2;PMS_P1;PMS_P2;Temp;Humidity;BMP_temperature;BMP_pressure;BME280_temperature;BME280_humidity;BME280_pressure;Samples;Min_cycle;Max_cycle;Signal;HPM_P1;HPM_P2
2023/04/06 14:27:05;;;;;;;6.40;2.00;;;;;;;5.88;50.66;100542.65;102135;1293;600374;-68
2023/04/06 14:29:54;;;;;;;5.10;1.60;;;;;;;5.87;51.66;100544.31;105002;1266;59354;-67
2023/04/06 14:32:42;;;;;;;6.30;1.70;;;;;;;5.78;52.68;100546.99;104997;1269;59636;-66
2023/04/06 14:35:32;;;;;;;4.80;1.60;;;;;;;5.63;53.34;100544.96;104841;1266;70858;-67
2023/04/06 14:38:20;;;;;;;4.70;1.40;;;;;;;5.41;54.06;100545.28;104976;1264;68495;-67
2023/04/06 14:41:16;;;;;;;5.30;1.60;;;;;;;5.17;55.17;100551.55;104256;1263;1003630;-68
2023/04/06 14:44:05;;;;;;;4.90;1.70;;;;;;;4.95;56.31;100548.54;104393;1263;1003377;-67
2023/04/06 14:46:53;;;;;;;5.50;1.60;;;;;;;4.74;56.91;100548.63;105261;1263;60946;-68
2023/04/06 14:49:42;;;;;;;6.10;1.80;;;;;;;4.57;57.71;100545.53;105155;1263;71110;-67
2023/04/06 14:52:30;;;;;;;5.60;1.80;;;;;;;4.40;58.73;100545.39;105178;1268;68336;-67
2023/04/06 14:55:20;;;;;;;6.30;1.80;;;;;;;4.23;59.63;100546.14;105189;1263;74267;-65
2023/04/06 14:58:08;;;;;;;9.20;2.10;;;;;;;4.07;60.11;100545.60;105112;1263;59285;-66
2023/04/06 15:00:59;;;;;;;7.40;2.10;;;;;;;3.94;61.40;100547.19;104672;1262;1002864;-64
2023/04/06 15:03:47;;;;;;;7.60;2.30;;;;;;;3.83;61.85;100549.60;105446;1261;71850;-67
2023/04/06 15:06:37;;;;;;;6.00;2.10;;;;;;;3.71;62.69;100549.58;105396;1260;68593;-66
2023/04/06 15:09:25;;;;;;;6.00;1.90;;;;;;;3.59;62.83;100552.16;105110;1265;74044;-67
2023/04/06 15:12:14;;;;;;;6.20;2.00;;;;;;;3.49;62.74;100549.77;104702;1263;1003482;-66
2023/04/06 15:15:03;;;;;;;7.90;2.40;;;;;;;3.43;62.95;100547.70;105014;1267;59579;-66
2023/04/06 15:17:53;;;;;;;6.40;2.30;;;;;;;3.36;63.47;100548.35;105108;1264;71809;-67
2023/04/06 15:20:41;;;;;;;5.90;2.00;;;;;;;3.32;64.08;100546.77;105097;1268;68268;-68
2023/04/06 15:23:30;;;;;;;6.10;2.10;;;;;;;3.28;64.52;100544.30;105174;1267;73322;-65
2023/04/06 15:26:18;;;;;;;6.20;2.20;;;;;;;3.21;65.06;100549.66;105346;1264;59218;-65
2023/04/06 15:29:07;;;;;;;7.30;2.10;;;;;;;3.17;64.99;100546.98;105138;1263;60872;-68
2023/04/06 15:31:55;;;;;;;7.90;2.00;;;;;;;3.12;65.18;100544.20;105163;1263;71935;-66
2023/04/06 15:34:43;;;;;;;6.10;1.80;;;;;;;3.07;65.78;100540.18;105008;1263;68462;-66
2023/04/06 15:37:32;;;;;;;6.80;2.00;;;;;;;2.97;66.66;100537.94;105289;1265;71137;-67
2023/04/06 15:40:20;;;;;;;6.50;1.70;;;;;;;2.86;66.95;100535.57;105120;1265;59224;-66
2023/04/06 15:43:09;;;;;;;5.60;1.70;;;;;;;2.83;67.36;100537.77;105218;1264;59731;-69
2023/04/06 15:45:57;;;;;;;6.60;1.90;;;;;;;2.80;67.44;100533.86;104990;1262;70918;-66
2023/04/06 15:48:46;;;;;;;5.60;2.00;;;;;;;2.79;68.10;100532.33;105153;1267;68419;-66
2023/04/06 15:51:36;;;;;;;6.40;1.80;;;;;;;2.81;68.17;100531.71;105201;1262;74305;-67
2023/04/06 15:54:24;;;;;;;8.30;3.00;;;;;;;2.84;68.47;100524.95;105094;1269;59615;-65
2023/04/06 15:57:14;;;;;;;7.80;2.30;;;;;;;2.89;68.42;100525.48;104414;1267;1002908;-67
2023/04/06 16:00:04;;;;;;;6.30;2.30;;;;;;;2.85;68.80;100526.65;104654;1262;1002884;-66
2023/04/06 16:02:56;;;;;;;5.90;1.90;;;;;;;2.74;69.18;100514.48;104943;1271;69350;-66
2023/04/06 16:05:47;;;;;;;5.70;1.70;;;;;;;2.74;69.72;100521.98;104987;1262;71625;-66
2023/04/06 16:08:52;;;;;;;6.20;1.90;;;;;;;2.67;69.96;100522.79;105281;1262;59328;-66
2023/04/06 16:11:40;;;;;;;7.10;2.40;;;;;;;2.63;70.41;100518.56;105141;1268;59809;-67
2023/04/06 16:14:28;;;;;;;8.00;2.60;;;;;;;2.59;70.77;100523.98;105271;1262;71907;-66
2023/04/06 16:17:17;;;;;;;6.10;2.20;;;;;;;2.53;71.42;100520.13;105410;1259;67191;-68
2023/04/06 16:20:06;;;;;;;7.90;2.60;;;;;;;2.50;71.53;100523.92;104470;1260;1003393;-65
2023/04/06 16:22:54;;;;;;;8.70;2.70;;;;;;;2.48;72.09;100524.38;105418;1260;59299;-67
2023/04/06 16:25:44;;;;;;;7.40;2.50;;;;;;;2.39;72.88;100521.35;105348;1260;60741;-66
2023/04/06 16:28:33;;;;;;;9.60;2.90;;;;;;;2.33;73.00;100525.93;105511;1259;71280;-68
2023/04/06 16:31:23;;;;;;;7.70;2.60;;;;;;;2.31;73.32;100527.25;104653;1260;1003125;-68
2023/04/06 16:34:13;;;;;;;7.50;2.20;;;;;;;2.30;74.13;100528.87;105348;1260;71639;-68
2023/04/06 16:37:02;;;;;;;5.60;2.00;;;;;;;2.24;74.44;100527.50;105077;1260;59541;-67
2023/04/06 16:39:51;;;;;;;6.30;2.30;;;;;;;2.23;74.65;100524.38;105149;1259;60520;-65
2023/04/06 16:42:45;;;;;;;7.40;2.40;;;;;;;2.26;74.92;100523.08;105548;1259;70551;-67
2023/04/06 16:45:32;;;;;;;6.80;2.20;;;;;;;2.25;74.76;100521.86;105319;1259;67258;-71
2023/04/06 16:48:21;;;;;;;7.70;2.20;;;;;;;2.23;74.81;100523.00;103870;1264;1005052;-67
2023/04/06 16:51:09;;;;;;;5.90;2.10;;;;;;;2.22;74.69;100519.88;104890;1265;1002845;-67
2023/04/06 16:53:59;;;;;;;7.10;2.40;;;;;;;2.24;74.99;100519.11;105323;1266;61808;-67
2023/04/06 16:56:47;;;;;;;9.20;3.10;;;;;;;2.24;75.05;100519.64;105433;1260;70655;-67
2023/04/06 16:59:35;;;;;;;9.90;2.80;;;;;;;2.25;74.80;100520.30;105467;1267;67842;-67
2023/04/06 17:02:25;;;;;;;8.60;2.80;;;;;;;2.27;75.13;100516.54;105665;1260;73044;-66
2023/04/06 17:05:13;;;;;;;5.90;2.10;;;;;;;2.22;74.95;100519.02;105438;1262;59264;-70
2023/04/06 17:08:02;;;;;;;6.60;2.40;;;;;;;2.18;75.44;100523.35;104837;1258;1003687;-69
2023/04/06 17:10:50;;;;;;;8.30;3.00;;;;;;;2.16;75.31;100528.14;105752;1262;71684;-68
2023/04/06 17:13:50;;;;;;;7.70;2.50;;;;;;;2.14;75.44;100524.34;106254;1256;66361;-70
2023/04/06 17:16:38;;;;;;;8.30;2.60;;;;;;;2.13;76.08;100529.30;106095;1255;72375;-72
2023/04/06 17:19:27;;;;;;;7.50;2.60;;;;;;;2.16;75.60;100529.37;105352;1255;1015519;-72
2023/04/06 17:22:19;;;;;;;7.50;2.90;;;;;;;2.16;75.40;100529.34;105954;1257;59264;-70
2023/04/06 17:25:09;;;;;;;7.30;2.70;;;;;;;2.15;75.79;100527.28;105659;1264;70587;-71
2023/04/06 17:27:57;;;;;;;8.30;2.70;;;;;;;2.11;76.19;100528.14;109338;1254;68351;-70
2023/04/06 17:30:45;;;;;;;9.60;3.00;;;;;;;2.07;76.64;100526.17;108442;1254;1002978;-70
2023/04/06 17:33:34;;;;;;;8.10;2.60;;;;;;;2.05;76.81;100527.29;109210;1254;59516;-70
2023/04/06 17:36:23;;;;;;;10.80;3.60;;;;;;;2.02;76.90;100526.15;109468;1254;60149;-72
2023/04/06 17:39:11;;;;;;;9.70;3.40;;;;;;;2.02;77.22;100528.10;109399;1254;71499;-70
2023/04/06 17:42:03;;;;;;;9.10;3.00;;;;;;;2.02;77.09;100524.23;109321;1254;67825;-69
2023/04/06 17:44:51;;;;;;;9.10;3.40;;;;;;;2.05;77.00;100524.14;109407;1254;72112;-73
2023/04/06 17:47:41;;;;;;;7.80;2.90;;;;;;;2.07;76.83;100524.44;109486;1254;56974;-72
2023/04/06 17:50:28;;;;;;;9.20;3.20;;;;;;;2.08;77.19;100528.59;109356;1254;59956;-71
2023/04/06 17:53:19;;;;;;;9.40;4.30;;;;;;;2.07;76.81;100525.66;109240;1255;71194;-72
2023/04/06 17:56:07;;;;;;;11.50;3.60;;;;;;;2.05;76.81;100521.52;109324;1254;66818;-72
2023/04/06 17:58:56;;;;;;;9.80;3.70;;;;;;;2.01;76.50;100517.95;109142;1254;73570;-69
2023/04/06 18:01:44;;;;;;;12.10;3.50;;;;;;;1.98;76.08;100518.95;109263;1254;57160;-70
2023/04/06 18:04:32;;;;;;;12.20;4.30;;;;;;;1.99;76.23;100513.67;108555;1254;1002203;-72
2023/04/06 18:07:22;;;;;;;13.10;3.90;;;;;;;2.01;76.31;100519.90;109201;1254;70542;-69
2023/04/06 18:10:11;;;;;;;10.90;3.50;;;;;;;2.01;76.29;100521.30;109391;1254;67668;-69
2023/04/06 18:13:00;;;;;;;14.20;4.20;;;;;;;2.02;76.39;100523.86;109280;1254;72741;-70
2023/04/06 18:15:48;;;;;;;12.20;4.80;;;;;;;2.00;76.02;100523.25;108453;1254;1002287;-68
2023/04/06 18:18:37;;;;;;;11.60;3.90;;;;;;;1.97;75.23;100523.55;108511;1254;1002427;-71
2023/04/06 18:21:26;;;;;;;9.60;3.60;;;;;;;1.93;75.12;100523.34;109308;1254;70123;-70
2023/04/06 18:24:15;;;;;;;9.90;3.10;;;;;;;1.87;75.38;100524.23;108382;1254;1002516;-71
2023/04/06 18:27:20;;;;;;;10.10;3.80;;;;;;;1.81;75.68;100520.77;108378;1255;1002272;-71
2023/04/06 18:30:11;;;;;;;11.00;4.00;;;;;;;1.81;75.82;100520.23;109335;1255;58423;-70
2023/04/06 18:32:59;;;;;;;7.70;3.10;;;;;;;1.82;75.37;100520.37;109216;1255;58697;-70
2023/04/06 18:35:48;;;;;;;10.10;3.50;;;;;;;1.84;75.58;100520.84;108388;1255;1002451;-72
2023/04/06 18:38:46;;;;;;;11.10;4.00;;;;;;;1.86;75.63;100524.27;109062;1255;65668;-71
2023/04/06 18:41:35;;;;;;;11.50;3.20;;;;;;;1.86;75.35;100522.52;109098;1255;71506;-71
2023/04/06 18:44:25;;;;;;;9.80;3.30;;;;;;;1.86;75.54;100519.70;109104;1255;57242;-71
2023/04/06 18:47:13;;;;;;;12.20;3.30;;;;;;;1.87;75.52;100520.22;109021;1255;60497;-71
2023/04/06 18:50:02;;;;;;;8.30;3.30;;;;;;;1.84;75.77;100515.41;108904;1259;70403;-69
2023/04/06 18:52:52;;;;;;;8.00;2.80;;;;;;;1.80;76.04;100519.91;108235;1259;1002191;-72
2023/04/06 18:55:44;;;;;;;9.50;3.10;;;;;;;1.87;77.12;100519.35;108229;1259;1002608;-66
2023/04/06 18:58:32;;;;;;;12.80;3.50;;;;;;;1.95;76.67;100521.17;108812;1261;56972;-70
2023/04/06 19:01:27;;;;;;;10.40;3.20;;;;;;;1.97;75.77;100521.64;108826;1260;58764;-71
2023/04/06 19:04:16;;;;;;;9.60;3.50;;;;;;;1.96;75.76;100518.86;109004;1260;72441;-70
2023/04/06 19:07:05;;;;;;;8.30;3.20;;;;;;;1.95;76.14;100515.23;108951;1260;67956;-70
2023/04/06 19:09:53;;;;;;;9.10;3.20;;;;;;;1.95;76.48;100516.45;108934;1260;72597;-70
2023/04/06 19:12:41;;;;;;;9.50;3.20;;;;;;;1.93;76.52;100516.33;108865;1260;57380;-72
2023/04/06 19:15:30;;;;;;;10.70;3.40;;;;;;;1.91;76.75;100515.36;108908;1260;58978;-69
2023/04/06 19:18:19;;;;;;;10.40;3.50;;;;;;;1.92;77.10;100512.52;108876;1260;71048;-70
2023/04/06 19:21:20;;;;;;;8.90;3.30;;;;;;;1.89;77.16;100506.31;109034;1259;66718;-69
2023/04/06 19:24:10;;;;;;;8.70;2.90;;;;;;;1.92;77.88;100513.42;109114;1256;71299;-70
2023/04/06 19:27:04;;;;;;;8.20;2.90;;;;;;;1.92;77.96;100520.59;109067;1258;57350;-70
2023/04/06 19:29:52;;;;;;;9.80;2.90;;;;;;;1.92;78.65;100516.72;109003;1258;58733;-69
2023/04/06 19:32:40;;;;;;;7.50;2.90;;;;;;;1.90;79.09;100517.49;109035;1258;72321;-70
2023/04/06 19:35:29;;;;;;;8.60;3.20;;;;;;;1.83;80.02;100514.73;108304;1257;1002695;-71
2023/04/06 19:38:18;;;;;;;9.40;3.20;;;;;;;1.84;80.03;100517.85;109017;1259;72756;-71
2023/04/06 19:41:07;;;;;;;10.20;2.90;;;;;;;1.87;80.08;100510.42;109088;1258;57269;-72
2023/04/06 19:43:55;;;;;;;8.10;2.80;;;;;;;1.88;80.23;100510.56;108306;1259;1002951;-71
2023/04/06 19:46:45;;;;;;;6.70;2.50;;;;;;;1.90;80.35;100511.03;109077;1258;70648;-72
2023/04/06 19:49:33;;;;;;;8.20;2.80;;;;;;;1.89;81.09;100510.89;109106;1258;68130;-69
2023/04/06 19:52:21;;;;;;;8.20;2.80;;;;;;;1.88;81.01;100509.17;109019;1260;71699;-70
2023/04/06 19:55:10;;;;;;;7.10;2.50;;;;;;;1.86;81.64;100508.70;108926;1259;56779;-72
2023/04/06 19:58:01;;;;;;;8.40;3.10;;;;;;;1.83;81.65;100508.80;109086;1256;59013;-70
2023/04/06 20:00:49;;;;;;;7.80;2.70;;;;;;;1.85;81.91;100511.35;109125;1256;72291;-69
2023/04/06 20:03:37;;;;;;;8.20;2.90;;;;;;;1.88;82.14;100509.16;108947;1256;66339;-69
2023/04/06 20:06:25;;;;;;;7.50;2.70;;;;;;;1.90;82.07;100505.58;109047;1256;73829;-71
2023/04/06 20:09:15;;;;;;;8.10;2.90;;;;;;;1.90;82.52;100507.15;109128;1256;58532;-70
2023/04/06 20:12:03;;;;;;;7.40;2.40;;;;;;;1.93;82.84;100501.30;109153;1255;60487;-70
2023/04/06 20:14:56;;;;;;;7.40;2.60;;;;;;;1.94;83.31;100504.75;109180;1256;72179;-70
2023/04/06 20:17:44;;;;;;;7.40;2.70;;;;;;;1.92;83.83;100502.03;109148;1256;66992;-70
2023/04/06 20:20:32;;;;;;;8.70;3.00;;;;;;;1.90;84.11;100504.18;109141;1256;71079;-72
2023/04/06 20:23:21;;;;;;;7.40;3.10;;;;;;;1.88;84.55;100501.11;109262;1260;58494;-71
2023/04/06 20:26:11;;;;;;;9.60;3.10;;;;;;;1.86;85.63;100500.65;108256;1259;1002260;-69
2023/04/06 20:28:59;;;;;;;7.30;3.20;;;;;;;1.86;85.41;100498.36;108890;1259;72689;-70
2023/04/06 20:31:48;;;;;;;8.00;2.70;;;;;;;1.86;85.97;100494.34;108970;1259;68623;-70
2023/04/06 20:34:36;;;;;;;9.60;2.80;;;;;;;1.86;86.12;100492.95;108926;1259;71341;-68
2023/04/06 20:37:24;;;;;;;6.80;3.10;;;;;;;1.86;86.09;100491.70;109042;1259;58508;-72
2023/04/06 20:40:13;;;;;;;8.40;2.90;;;;;;;1.88;87.01;100486.08;109140;1259;58749;-68
2023/04/06 20:43:00;;;;;;;9.30;3.10;;;;;;;1.89;87.11;100488.50;109190;1258;70733;-73
2023/04/06 20:45:51;;;;;;;7.80;3.00;;;;;;;1.88;87.38;100483.77;109129;1259;67811;-72
2023/04/06 20:48:41;;;;;;;7.90;2.90;;;;;;;1.90;87.44;100480.91;109119;1258;71366;-73
2023/04/06 20:51:30;;;;;;;6.80;2.60;;;;;;;1.93;87.71;100481.52;109050;1258;57222;-74
2023/04/06 20:54:20;;;;;;;8.00;3.20;;;;;;;1.93;87.99;100481.48;108359;1258;1002449;-73
2023/04/06 20:57:08;;;;;;;6.90;2.60;;;;;;;1.94;88.36;100480.60;108975;1258;72233;-72
2023/04/06 20:59:57;;;;;;;10.80;3.40;;;;;;;1.94;88.98;100479.89;109014;1259;68085;-71
2023/04/06 21:02:45;;;;;;;9.50;3.20;;;;;;;1.96;89.33;100477.91;109045;1258;71381;-71
2023/04/06 21:05:33;;;;;;;10.40;3.80;;;;;;;2.00;89.15;100475.11;108958;1259;58535;-73
2023/04/06 21:08:23;;;;;;;10.00;3.70;;;;;;;2.06;89.26;100476.50;108985;1258;59129;-73
2023/04/06 21:11:11;;;;;;;10.70;3.80;;;;;;;2.10;89.85;100476.56;109209;1255;72003;-70
2023/04/06 21:14:00;;;;;;;7.90;3.50;;;;;;;2.13;90.01;100481.32;109179;1256;67890;-73
2023/04/06 21:16:48;;;;;;;10.20;3.40;;;;;;;2.14;90.62;100477.10;109367;1255;72737;-73
2023/04/06 21:19:36;;;;;;;7.50;3.00;;;;;;;2.14;90.87;100470.77;108376;1255;1002447;-73
2023/04/06 21:22:24;;;;;;;8.00;3.20;;;;;;;2.15;91.28;100466.90;109341;1256;60424;-71
2023/04/06 21:25:12;;;;;;;8.50;3.60;;;;;;;2.14;91.44;100462.05;109216;1257;72344;-72
2023/04/06 21:28:01;;;;;;;7.90;2.70;;;;;;;2.17;91.36;100460.52;109240;1256;68019;-72
2023/04/06 21:30:50;;;;;;;8.40;3.40;;;;;;;2.18;92.50;100454.89;109141;1256;72781;-73
2023/04/06 21:33:39;;;;;;;7.80;3.40;;;;;;;2.19;92.39;100453.62;109187;1255;57120;-70
2023/04/06 21:36:28;;;;;;;8.10;3.00;;;;;;;2.15;93.82;100448.51;109206;1256;59145;-73
2023/04/06 21:39:16;;;;;;;10.30;3.50;;;;;;;2.12;94.02;100450.39;109187;1256;70835;-73
2023/04/06 21:42:04;;;;;;;8.60;3.40;;;;;;;2.11;94.17;100451.11;109174;1256;66452;-73
2023/04/06 21:44:52;;;;;;;8.10;3.40;;;;;;;2.12;94.32;100446.52;109369;1255;73012;-70
2023/04/06 21:47:40;;;;;;;8.70;2.90;;;;;;;2.14;94.85;100451.71;109070;1256;57146;-73
2023/04/06 21:50:30;;;;;;;7.60;3.40;;;;;;;2.16;94.63;100453.19;109124;1255;60152;-73
2023/04/06 21:53:19;;;;;;;7.60;2.90;;;;;;;2.18;95.00;100446.66;109042;1255;70624;-73
2023/04/06 21:56:09;;;;;;;7.80;2.80;;;;;;;2.15;96.01;100445.72;109131;1256;66657;-72
2023/04/06 21:59:01;;;;;;;6.90;2.60;;;;;;;2.14;95.91;100445.25;107543;1255;1003034;-73
2023/04/06 22:01:49;;;;;;;7.20;2.90;;;;;;;2.12;96.18;100444.25;109179;1255;57499;-74
2023/04/06 22:04:37;;;;;;;8.50;3.00;;;;;;;2.14;95.85;100443.30;109185;1255;60360;-74
2023/04/06 22:07:25;;;;;;;8.80;3.10;;;;;;;2.15;96.47;100441.50;109306;1255;70822;-75
2023/04/06 22:10:15;;;;;;;7.90;3.20;;;;;;;2.19;95.76;100441.02;109355;1255;67862;-76
2023/04/06 22:13:03;;;;;;;8.00;3.20;;;;;;;2.23;96.18;100447.70;109143;1255;71177;-75
2023/04/06 22:15:52;;;;;;;9.00;3.30;;;;;;;2.25;95.96;100443.61;109127;1255;57444;-74
2023/04/06 22:18:41;;;;;;;9.70;3.20;;;;;;;2.26;95.81;100441.80;109120;1255;61072;-73
2023/04/06 22:21:30;;;;;;;7.90;3.10;;;;;;;2.30;96.42;100439.73;109018;1259;72045;-73
2023/04/06 22:24:18;;;;;;;12.00;2.90;;;;;;;2.31;95.97;100438.46;108954;1259;67680;-73
2023/04/06 22:27:06;;;;;;;9.30;3.20;;;;;;;2.33;96.20;100435.60;109072;1257;71159;-74
2023/04/06 22:29:55;;;;;;;7.50;2.60;;;;;;;2.31;97.00;100429.35;109089;1257;57131;-73
2023/04/06 22:32:43;;;;;;;9.40;3.90;;;;;;;2.30;97.41;100425.89;108981;1257;59105;-74
2023/04/06 22:35:31;;;;;;;10.10;3.60;;;;;;;2.30;97.13;100425.18;109086;1257;72391;-73
2023/04/06 22:38:19;;;;;;;9.10;3.50;;;;;;;2.31;98.36;100420.09;109088;1257;67381;-73
2023/04/06 22:41:07;;;;;;;12.40;4.20;;;;;;;2.29;98.55;100413.48;109060;1258;72970;-74
2023/04/06 22:43:55;;;;;;;7.90;3.10;;;;;;;2.30;98.60;100415.58;108932;1266;58438;-74
2023/04/06 22:46:44;;;;;;;11.20;4.30;;;;;;;2.31;98.90;100413.27;109031;1260;60464;-73
2023/04/06 22:49:32;;;;;;;14.90;4.40;;;;;;;2.32;99.05;100408.15;109002;1258;72023;-72
2023/04/06 22:52:25;;;;;;;12.40;4.10;;;;;;;2.31;99.90;100406.42;109197;1255;67999;-71
2023/04/06 22:55:13;;;;;;;8.90;3.30;;;;;;;2.32;99.34;100404.80;109339;1255;71169;-68
2023/04/06 22:58:05;;;;;;;9.80;3.90;;;;;;;2.30;99.97;100394.71;109195;1255;56997;-68
2023/04/06 23:00:52;;;;;;;10.50;4.20;;;;;;;2.29;99.96;100393.21;108539;1255;1002980;-68
2023/04/06 23:03:41;;;;;;;11.30;4.80;;;;;;;2.28;99.99;100392.88;109281;1255;70729;-69
2023/04/06 23:06:29;;;;;;;10.60;5.40;;;;;;;2.30;99.98;100390.88;109218;1255;67891;-69
2023/04/06 23:09:17;;;;;;;10.50;4.60;;;;;;;2.31;100.00;100390.67;109104;1256;71905;-69
2023/04/06 23:12:05;;;;;;;9.80;3.60;;;;;;;2.31;100.00;100394.70;109235;1256;58808;-68
2023/04/06 23:14:54;;;;;;;8.50;3.60;;;;;;;2.31;100.00;100391.19;109177;1255;60338;-69
2023/04/06 23:17:42;;;;;;;10.00;4.60;;;;;;;2.30;100.00;100389.48;109078;1256;72000;-68
2023/04/06 23:20:30;;;;;;;10.00;4.50;;;;;;;2.30;100.00;100381.60;109227;1255;67708;-67
2023/04/06 23:23:19;;;;;;;11.60;4.50;;;;;;;2.29;100.00;100378.28;109127;1256;72780;-71
2023/04/06 23:26:07;;;;;;;8.80;3.90;;;;;;;2.28;100.00;100380.08;109112;1256;57280;-69
2023/04/06 23:28:55;;;;;;;11.60;5.40;;;;;;;2.28;100.00;100373.27;109147;1255;58859;-68
2023/04/06 23:31:43;;;;;;;11.50;5.40;;;;;;;2.29;100.00;100370.98;109117;1256;72236;-69
2023/04/06 23:34:31;;;;;;;11.70;5.10;;;;;;;2.29;100.00;100367.98;109275;1256;67549;-68
2023/04/06 23:37:19;;;;;;;14.30;5.40;;;;;;;2.30;100.00;100363.91;109237;1255;72455;-68
2023/04/06 23:40:07;;;;;;;11.50;5.50;;;;;;;2.32;100.00;100362.26;109173;1256;56881;-74
2023/04/06 23:42:56;;;;;;;11.70;5.30;;;;;;;2.34;100.00;100357.09;109296;1255;60441;-68
2023/04/06 23:45:44;;;;;;;15.40;6.10;;;;;;;2.37;100.00;100355.42;109197;1255;73234;-70
2023/04/06 23:48:32;;;;;;;12.20;4.90;;;;;;;2.37;100.00;100350.66;109243;1256;66958;-70
2023/04/06 23:51:20;;;;;;;11.60;5.30;;;;;;;2.39;100.00;100352.71;109222;1259;72810;-70
2023/04/06 23:54:08;;;;;;;12.30;5.40;;;;;;;2.38;100.00;100351.54;109089;1256;59910;-68
2023/04/06 23:56:57;;;;;;;12.10;5.10;;;;;;;2.39;100.00;100353.05;109238;1256;58745;-69
2023/04/06 23:59:45;;;;;;;11.40;5.60;;;;;;;2.43;100.00;100354.81;108408;1256;1002199;-72
